»·PEaware :: N275ND KSNA-KCRQ

N275ND :: KSNA-KCRQ

FLIGHT INFORMATION

Flight Status: Arrived
Operator: Privately registered:
United States
More flights under this callsign
Pilot: John A. (19135)
Aircraft: CESSNA 172 SKYHAWK
(C172)
More flights by this aircraft type
Origin: KSNA John Wayne-Orange Co
United States
Destination: KCRQ McClellan-Palomar
United States
More flights between these airports :: More routes between these airports
Route: V23 OCN
File this flight plan on PilotEdge
Remarks: I-2 Rating
Altitude:
(Current/Filed)
5,000ft
Speed:
(Current/Filed)
120kts
Departed: 28-Jul-19 01:06 PM
Arrived: 28-Jul-19 02:09 PM
Distance/Time
Traveled:
3nm/1:03
Distance/Time
To Go:
Arrived

Flight Plot

Page will automatically refresh every two minutes.


Map Options




Map Legend


Flown Route
Filed Route
Departure Airport
Arrival Airport
Navaid (VOR, NDB)
Fix

Horizontal Profiles

Position Reports

Time Latitude Longitude Heading Altitude Ground
Speed
28-Jul-19 12:38 33.669578 -117.869156 41 60ft 0kts
28-Jul-19 12:39 33.669624 -117.869108 41 60ft 0kts
28-Jul-19 12:40 33.669686 -117.869042 41 60ft 0kts
28-Jul-19 12:41 33.669748 -117.868977 41 60ft 0kts
28-Jul-19 12:42 33.669809 -117.868913 41 60ft 0kts
28-Jul-19 12:43 33.669825 -117.868896 41 60ft 0kts
28-Jul-19 12:44 33.669825 -117.868896 41 60ft 0kts
28-Jul-19 12:45 33.669825 -117.868896 41 60ft 0kts
28-Jul-19 12:46 33.669825 -117.868896 41 60ft 0kts
28-Jul-19 12:47 33.669825 -117.868896 41 60ft 0kts
28-Jul-19 12:48 33.669825 -117.868896 41 60ft 0kts
28-Jul-19 12:49 33.669825 -117.868896 41 60ft 0kts
28-Jul-19 12:50 33.669825 -117.868896 41 60ft 0kts
28-Jul-19 12:51 33.669825 -117.868896 41 60ft 0kts
28-Jul-19 12:52 33.669825 -117.868896 41 60ft 0kts
28-Jul-19 12:53 33.669825 -117.868896 41 60ft 0kts
28-Jul-19 12:54 33.669825 -117.868896 41 60ft 0kts
28-Jul-19 13:03 33.679962 -117.863620 297 60ft 0kts
28-Jul-19 13:04 33.679686 -117.864445 208 60ft 3kts
28-Jul-19 13:05 33.663197 -117.875394 205 696ft 73kts
28-Jul-19 13:06 33.640717 -117.878656 182 1487ft 87kts
28-Jul-19 13:07 33.613771 -117.880439 176 2015ft 112kts
28-Jul-19 13:08 33.582935 -117.883303 182 2537ft 113kts
28-Jul-19 13:09 33.551850 -117.883960 178 3069ft 112kts
28-Jul-19 13:10 33.531849 -117.858399 111 3388ft 117kts
28-Jul-19 13:11 33.523157 -117.820854 104 4062ft 105kts
28-Jul-19 13:12 33.513522 -117.788899 112 4785ft 101kts
28-Jul-19 13:13 33.502793 -117.753221 108 5022ft 127kts
28-Jul-19 13:14 33.489424 -117.712019 128 4952ft 111kts
28-Jul-19 13:15 33.468150 -117.677810 126 4990ft 127kts
28-Jul-19 13:16 33.447057 -117.639501 105 4933ft 129kts
28-Jul-19 13:17 33.426117 -117.602506 129 5033ft 126kts
28-Jul-19 13:18 33.406152 -117.563427 109 5037ft 124kts
28-Jul-19 13:19 33.399885 -117.541112 109 4793ft 135kts
28-Jul-19 13:20 33.397467 -117.534625 117 4671ft 132kts
28-Jul-19 13:21 33.383417 -117.497153 111 4936ft 126kts
28-Jul-19 13:22 33.367111 -117.457397 122 5007ft 125kts
28-Jul-19 13:23 33.358273 -117.442516 128 4976ft 130kts
28-Jul-19 13:30 33.669637 -117.868608 309 60ft 0kts
28-Jul-19 13:31 33.669637 -117.868608 309 60ft 0kts
28-Jul-19 13:32 33.669637 -117.868608 309 60ft 0kts
28-Jul-19 13:33 33.673625 -117.867153 0 60ft 21kts
28-Jul-19 13:34 33.679811 -117.863511 350 60ft 15kts
28-Jul-19 13:35 33.671254 -117.869958 209 316ft 67kts
28-Jul-19 13:36 33.649067 -117.875652 178 1150ft 83kts
28-Jul-19 13:37 33.628011 -117.870269 113 1976ft 88kts
28-Jul-19 13:38 33.621541 -117.840185 106 2872ft 85kts
28-Jul-19 13:39 33.615705 -117.810309 110 3621ft 91kts
28-Jul-19 13:40 33.592182 -117.786735 140 4113ft 105kts
28-Jul-19 13:41 33.572110 -117.767130 131 4862ft 99kts
28-Jul-19 13:42 33.549226 -117.738672 115 4958ft 118kts
28-Jul-19 13:43 33.523603 -117.713767 136 4994ft 113kts
28-Jul-19 13:44 33.498175 -117.685036 137 4991ft 117kts
28-Jul-19 13:45 33.472393 -117.656882 136 5008ft 118kts
28-Jul-19 13:46 33.445003 -117.631021 141 5001ft 118kts
28-Jul-19 13:47 33.417353 -117.603078 140 4537ft 126kts
28-Jul-19 13:48 33.390537 -117.574242 136 4147ft 124kts
28-Jul-19 13:49 33.362648 -117.544950 140 3705ft 126kts
28-Jul-19 13:50 33.336868 -117.515392 136 3514ft 112kts
28-Jul-19 13:51 33.312096 -117.489566 137 3555ft 120kts
28-Jul-19 13:52 33.285699 -117.458475 133 3506ft 126kts
28-Jul-19 13:53 33.258508 -117.427311 140 3485ft 125kts
28-Jul-19 13:54 33.243012 -117.389224 102 3456ft 125kts
28-Jul-19 13:55 33.234389 -117.347512 104 3419ft 127kts
28-Jul-19 13:56 33.227772 -117.304866 104 3493ft 124kts
28-Jul-19 13:57 33.223947 -117.261077 99 3494ft 125kts
28-Jul-19 13:58 33.219258 -117.218505 98 3525ft 124kts
28-Jul-19 13:59 33.216596 -117.174176 88 3561ft 124kts
28-Jul-19 14:01 33.210762 -117.133537 110 3587ft 126kts
28-Jul-19 14:02 33.201006 -117.093270 108 3509ft 120kts
28-Jul-19 14:03 33.175032 -117.087470 203 3559ft 116kts
28-Jul-19 14:04 33.156573 -117.116932 243 3387ft 124kts
28-Jul-19 14:05 33.147239 -117.157555 259 2582ft 103kts
28-Jul-19 14:06 33.141286 -117.190975 261 1830ft 96kts
28-Jul-19 14:07 33.137340 -117.222336 259 1257ft 88kts
28-Jul-19 14:08 33.133138 -117.250940 259 748ft 90kts
28-Jul-19 14:09 33.128896 -117.276472 260 335ft 25kts
28-Jul-19 14:10 33.128217 -117.275190 74 335ft 29kts
28-Jul-19 14:11 33.128316 -117.274621 77 335ft 0kts
28-Jul-19 14:12 33.128316 -117.274621 77 335ft 0kts
28-Jul-19 14:13 33.669637 -117.868608 309 60ft 0kts
28-Jul-19 14:14 33.669637 -117.868608 309 60ft 0kts
28-Jul-19 14:15 33.669637 -117.868608 309 60ft 0kts
28-Jul-19 14:16 33.669637 -117.868608 309 60ft 0kts
28-Jul-19 14:17 33.672540 -117.867828 31 60ft 21kts
28-Jul-19 14:18 33.676379 -117.865660 28 60ft 17kts
28-Jul-19 14:19 33.679962 -117.863598 300 60ft 0kts
28-Jul-19 14:19 33.679568 -117.864512 207 60ft 31kts
28-Jul-19 14:21 33.657486 -117.874959 182 926ft 76kts
28-Jul-19 14:22 33.639737 -117.867617 107 1808ft 76kts
28-Jul-19 14:22 33.630428 -117.845913 122 2532ft 81kts

Navigation Log

Ident Type
Flight plan parsing failed, navigation log unavailable